This is the latest recevied weather packets stored in our database for station/object SV1JCZ-13. If no packets are shown the sender has not sent any weather packets the latest 10 day(s).
| Time | Temp. | Humidity | Pressure | Rain* | Wind** | Luminosity | Snow |
|---|---|---|---|---|---|---|---|
| 1777742470 | 9.44° C | 67% | 0 hPa | 0 mm | - | - | - |
| 1777742231 | 9.44° C | 67% | 0 hPa | 0 mm | - | - | - |
| 1777742110 | 9.44° C | 66% | 0 hPa | 0 mm | - | - | - |
| 1777741750 | 10° C | 65% | 0 hPa | 0 mm | - | - | - |
| 1777741390 | 10.56° C | 62% | 0 hPa | 0 mm | - | - | - |
| 1777741030 | 11.11° C | 58% | 0 hPa | 0 mm | - | - | - |
| 1777740670 | 11.11° C | 56% | 0 hPa | 0 mm | - | - | - |
| 1777740310 | 11.67° C | 53% | 0 hPa | 0 mm | - | - | - |
| 1777739950 | 12.78° C | 51% | 0 hPa | 0 mm | - | - | - |
| 1777739831 | 12.78° C | 50% | 0 hPa | 0 mm | - | - | - |
| 1777739590 | 13.89° C | 48% | 0 hPa | 0 mm | - | - | - |
| 1777739230 | 14.44° C | 46% | 0 hPa | 0 mm | - | - | - |
| 1777738870 | 15° C | 45% | 0 hPa | 0 mm | - | - | - |
| 1777738631 | 15° C | 45% | 0 hPa | 0 mm | - | - | - |
| 1777738510 | 15° C | 46% | 0 hPa | 0 mm | - | - | - |
| 1777738150 | 14.44° C | 49% | 0 hPa | 0 mm | - | - | - |
| 1777737790 | 13.89° C | 51% | 0 hPa | 0 mm | - | - | - |
| 1777737430 | 13.89° C | 50% | 0 hPa | 0 mm | - | - | - |
| 1777737070 | 13.33° C | 51% | 0 hPa | 0 mm | - | - | - |
| 1777736710 | 13.33° C | 52% | 0 hPa | 0 mm | - | - | - |
| 1777736350 | 13.33° C | 51% | 0 hPa | 0 mm | - | - | - |
| 1777736231 | 13.33° C | 50% | 0 hPa | 0 mm | - | - | - |
| 1777735990 | 13.89° C | 49% | 0 hPa | 0 mm | - | - | - |
| 1777735630 | 14.44° C | 49% | 0 hPa | 0 mm | - | - | - |
| 1777735270 | 13.89° C | 46% | 0 hPa | 0 mm | - | - | - |
* Rain latest hour (hover to see other rain measurements)
** Current wind speed in m/s (hover to see current wind gust speed)